createdAt,value
2023-03-21T00:04:33.193Z,4.45
2023-03-21T00:09:40.453Z,3.50
2023-03-21T00:14:43.440Z,1.42
2023-03-21T00:19:46.357Z,2.65
2023-03-21T00:24:48.457Z,2.22
2023-03-21T00:29:50.734Z,2.45
2023-03-21T00:35:03.885Z,1.65
2023-03-21T00:40:26.563Z,1.95
2023-03-21T00:45:33.239Z,2.65
2023-03-21T00:50:39.499Z,1.23
2023-03-21T00:55:41.990Z,1.47
2023-03-21T01:00:46.997Z,1.25
2023-03-21T01:06:05.812Z,0.93
2023-03-21T01:11:11.911Z,1.48
2023-03-21T01:21:17.235Z,0.95
2023-03-21T01:26:19.755Z,1.48
2023-03-21T01:31:21.942Z,1.10
2023-03-21T01:36:26.707Z,1.13
2023-03-21T01:41:45.447Z,0.77
2023-03-21T01:47:12.193Z,0.60
2023-03-21T01:52:36.583Z,0.60
2023-03-21T01:58:09.524Z,0.70
2023-03-21T02:03:38.270Z,1.45
2023-03-21T02:09:08.771Z,2.03
2023-03-21T02:14:26.546Z,1.05
2023-03-21T02:19:58.789Z,1.10
2023-03-21T02:25:23.435Z,1.52
2023-03-21T02:30:39.973Z,0.82
2023-03-21T02:36:14.883Z,1.00
2023-03-21T02:41:53.267Z,1.50
2023-03-21T02:47:47.689Z,2.67
2023-03-21T02:52:52.307Z,0.85
2023-03-21T02:57:56.824Z,2.53
2023-03-21T03:03:09.656Z,2.00
2023-03-21T03:08:50.062Z,1.90
2023-03-21T03:14:35.673Z,6.45
2023-03-21T03:20:07.158Z,7.80
2023-03-21T03:25:32.640Z,5.93
2023-03-21T03:30:57.389Z,9.80
2023-03-21T03:36:30.369Z,12.43
2023-03-21T03:42:05.950Z,7.47
2023-03-21T03:52:55.262Z,8.98
2023-03-21T03:57:59.374Z,10.73
2023-03-21T04:03:02.030Z,9.63
2023-03-21T04:08:04.387Z,9.43
2023-03-21T04:13:13.788Z,11.48
2023-03-21T04:18:36.017Z,9.52
2023-03-21T04:23:38.460Z,6.80
2023-03-21T04:28:40.852Z,7.63
2023-03-21T04:34:09.977Z,9.60
2023-03-21T04:39:15.014Z,7.30
2023-03-21T04:44:21.065Z,10.20
2023-03-21T04:49:23.484Z,14.07
2023-03-21T04:54:25.996Z,9.75
2023-03-21T04:59:28.376Z,8.85
2023-03-21T05:04:31.118Z,9.85
2023-03-21T05:09:33.344Z,10.40
2023-03-21T05:14:35.669Z,9.88
2023-03-21T05:19:40.601Z,9.52
2023-03-21T05:24:42.956Z,10.93
2023-03-21T05:29:54.378Z,8.68
2023-03-21T05:34:56.743Z,7.90
2023-03-21T05:39:59.052Z,5.95
2023-03-21T05:45:06.678Z,6.22
2023-03-21T05:50:11.674Z,7.65
2023-03-21T05:55:16.173Z,8.45
2023-03-21T06:00:21.917Z,11.35
2023-03-21T06:05:44.606Z,9.73
2023-03-21T06:10:55.616Z,10.38
2023-03-21T06:15:58.430Z,12.20
2023-03-21T06:21:01.583Z,14.65
2023-03-21T06:26:04.422Z,10.30
2023-03-21T06:31:07.288Z,12.38
2023-03-21T06:36:10.804Z,16.38
2023-03-21T06:41:13.570Z,15.70
2023-03-21T06:46:20.568Z,18.33
2023-03-21T06:51:23.242Z,11.05
2023-03-21T06:56:42.356Z,19.02
2023-03-21T07:01:47.496Z,10.68
2023-03-21T07:06:50.009Z,19.55
2023-03-21T07:22:05.126Z,14.05
2023-03-21T07:27:07.152Z,17.70
2023-03-21T07:32:09.390Z,15.50
2023-03-21T07:37:11.509Z,15.23
2023-03-21T07:42:13.652Z,14.32
2023-03-21T07:47:15.980Z,18.42
2023-03-21T07:52:18.017Z,9.90
2023-03-21T07:57:20.070Z,12.38
2023-03-21T08:02:22.173Z,16.63
2023-03-21T08:07:24.217Z,16.55
2023-03-21T08:12:26.253Z,12.23
2023-03-21T08:17:28.944Z,17.73
2023-03-21T08:22:31.006Z,14.98
2023-03-21T08:27:33.164Z,14.48
2023-03-21T08:32:35.226Z,18.58
2023-03-21T08:37:38.891Z,16.20
2023-03-21T08:42:41.683Z,21.80
2023-03-21T08:47:43.891Z,14.82
2023-03-21T08:52:46.077Z,11.02
2023-03-21T08:57:48.091Z,13.77
2023-03-21T09:02:52.055Z,13.90
2023-03-21T09:07:54.311Z,13.80
2023-03-21T09:12:56.457Z,9.45
2023-03-21T09:18:13.007Z,12.77
2023-03-21T09:23:15.669Z,18.55
2023-03-21T09:28:17.749Z,13.35
2023-03-21T09:33:21.244Z,10.48
2023-03-21T09:38:30.371Z,17.45
2023-03-21T09:43:53.268Z,8.80
2023-03-21T09:49:13.103Z,11.52
2023-03-21T09:54:33.161Z,11.30
2023-03-21T09:59:40.092Z,13.57
2023-03-21T10:04:44.204Z,16.48
2023-03-21T10:09:48.413Z,19.05
2023-03-21T10:14:57.122Z,14.43
2023-03-21T10:20:17.670Z,11.10
2023-03-21T10:25:37.786Z,16.92
2023-03-21T10:30:46.607Z,12.43
2023-03-21T10:35:57.135Z,9.20
2023-03-21T10:40:59.292Z,14.40
2023-03-21T10:46:08.397Z,13.30
2023-03-21T10:51:10.596Z,7.35
2023-03-21T10:56:13.049Z,11.50
2023-03-21T11:01:32.341Z,9.00
2023-03-21T11:06:38.767Z,9.77
2023-03-21T11:12:01.092Z,7.28
2023-03-21T11:17:28.638Z,10.63
2023-03-21T11:22:39.247Z,8.77
2023-03-21T11:27:53.832Z,10.98
2023-03-21T11:33:03.516Z,9.32
2023-03-21T11:38:23.410Z,11.23
2023-03-21T11:43:37.190Z,7.78
2023-03-21T11:48:39.367Z,10.52
2023-03-21T11:54:07.528Z,8.75
2023-03-21T11:59:37.423Z,9.40
2023-03-21T12:05:00.985Z,10.10
2023-03-21T12:10:11.862Z,10.02
2023-03-21T12:15:35.184Z,7.57
2023-03-21T12:20:42.325Z,8.77
2023-03-21T12:25:59.764Z,7.35
2023-03-21T12:31:39.896Z,11.52
2023-03-21T12:36:52.357Z,6.75
2023-03-21T12:42:35.977Z,4.15
2023-03-21T12:47:43.351Z,8.40
2023-03-21T12:52:50.284Z,6.28
2023-03-21T12:58:06.638Z,8.75
2023-03-21T13:03:30.236Z,8.95
2023-03-21T13:08:52.761Z,5.30
2023-03-21T13:14:16.759Z,5.72
2023-03-21T13:19:33.012Z,7.55
2023-03-21T13:24:40.845Z,8.55
2023-03-21T13:29:49.862Z,5.80
2023-03-21T13:35:16.045Z,8.68
2023-03-21T13:45:31.930Z,6.13
2023-03-21T13:51:00.766Z,4.85
2023-03-21T13:56:15.272Z,4.60
2023-03-21T14:01:36.745Z,5.38
2023-03-21T14:06:55.298Z,5.80
2023-03-21T14:12:03.910Z,7.55
2023-03-21T14:17:26.616Z,9.98
2023-03-21T14:22:29.839Z,4.80
2023-03-21T14:27:34.430Z,8.65
2023-03-21T14:32:36.661Z,8.18
2023-03-21T14:37:42.357Z,9.02
2023-03-21T14:42:49.337Z,4.95
2023-03-21T14:47:57.145Z,7.20
2023-03-21T14:52:59.622Z,10.20
2023-03-21T14:58:01.721Z,8.73
2023-03-21T15:03:04.190Z,10.05
2023-03-21T15:08:12.044Z,4.68
2023-03-21T15:13:16.343Z,6.03
2023-03-21T15:18:34.478Z,11.10
2023-03-21T15:23:53.195Z,9.45
2023-03-21T15:29:00.368Z,6.28
2023-03-21T15:34:03.801Z,10.48
2023-03-21T15:39:08.748Z,9.35
2023-03-21T15:44:14.890Z,7.80
2023-03-21T15:49:19.368Z,6.28
2023-03-21T15:54:29.589Z,5.53
2023-03-21T15:59:36.628Z,8.85
2023-03-21T16:04:56.570Z,8.65
2023-03-21T16:10:04.668Z,7.68
2023-03-21T16:15:07.620Z,4.22
2023-03-21T16:20:20.580Z,4.50
2023-03-21T16:25:22.758Z,8.73
2023-03-21T16:30:25.627Z,5.20
2023-03-21T16:35:28.004Z,6.97
2023-03-21T16:40:37.374Z,6.93
2023-03-21T16:45:39.690Z,2.90
2023-03-21T16:50:46.341Z,7.25
2023-03-21T16:55:48.778Z,4.68
2023-03-21T17:00:50.837Z,6.32
2023-03-21T17:05:52.952Z,8.10
2023-03-21T17:10:55.052Z,5.85
2023-03-21T17:15:57.095Z,6.45
2023-03-21T17:20:59.205Z,5.22
2023-03-21T17:26:02.321Z,8.23
2023-03-21T17:31:06.736Z,7.40
2023-03-21T17:36:20.377Z,5.40
2023-03-21T17:41:22.844Z,6.15
2023-03-21T17:46:27.348Z,6.13
2023-03-21T17:51:30.485Z,10.43
2023-03-21T17:56:34.511Z,10.68
2023-03-21T18:01:37.059Z,7.65
2023-03-21T18:06:39.496Z,10.27
2023-03-21T18:11:43.024Z,6.28
2023-03-21T18:16:51.343Z,12.23
2023-03-21T18:21:56.210Z,10.52
2023-03-21T18:26:58.774Z,5.07
2023-03-21T18:32:06.993Z,15.63
2023-03-21T18:37:13.153Z,20.08
2023-03-21T18:42:18.829Z,7.80
2023-03-21T18:47:23.676Z,12.48
2023-03-21T18:52:27.142Z,7.95
2023-03-21T18:57:37.013Z,11.48
2023-03-21T19:02:46.770Z,8.65
2023-03-21T19:07:50.488Z,9.23
2023-03-21T19:12:54.828Z,8.25
2023-03-21T19:23:21.111Z,7.22
2023-03-21T19:28:23.276Z,9.55
2023-03-21T19:33:25.568Z,8.98
2023-03-21T19:38:27.655Z,8.52
2023-03-21T19:43:33.112Z,9.55
2023-03-21T19:48:38.404Z,8.35
2023-03-21T19:53:40.922Z,9.20
2023-03-21T19:58:43.433Z,10.18
2023-03-21T20:03:45.966Z,10.63
2023-03-21T20:14:10.552Z,13.70
2023-03-21T20:19:17.313Z,7.47
2023-03-21T20:24:20.295Z,9.35
2023-03-21T20:34:44.780Z,7.45
2023-03-21T20:39:46.866Z,14.88
2023-03-21T20:44:58.268Z,8.70
2023-03-21T20:50:01.059Z,16.38
2023-03-21T20:55:03.359Z,13.20
2023-03-21T21:00:14.796Z,6.65
2023-03-21T21:05:29.950Z,7.43
2023-03-21T21:10:35.051Z,13.77
2023-03-21T21:15:39.965Z,14.18
2023-03-21T21:20:42.184Z,11.88
2023-03-21T21:25:44.284Z,9.52
2023-03-21T21:30:46.306Z,11.57
2023-03-21T21:35:49.178Z,11.88
2023-03-21T21:40:52.361Z,10.82
2023-03-21T21:45:54.577Z,10.35
2023-03-21T21:50:56.633Z,13.98
2023-03-21T21:56:02.022Z,11.27
2023-03-21T22:01:06.375Z,10.20
2023-03-21T22:06:10.351Z,11.20
2023-03-21T22:11:13.901Z,9.43
2023-03-21T22:16:16.069Z,10.52
2023-03-21T22:21:18.154Z,12.75
2023-03-21T22:26:20.465Z,11.18
2023-03-21T22:31:23.396Z,11.23
2023-03-21T22:36:25.687Z,10.65
2023-03-21T22:41:27.761Z,12.85
2023-03-21T22:46:29.996Z,12.35
2023-03-21T22:51:32.393Z,18.77
2023-03-21T22:56:34.603Z,10.20
2023-03-21T23:01:36.849Z,12.35
2023-03-21T23:06:39.562Z,13.90
2023-03-21T23:11:43.010Z,10.13
2023-03-21T23:16:45.212Z,13.65
2023-03-21T23:21:47.848Z,10.98
2023-03-21T23:26:49.993Z,13.85
2023-03-21T23:31:52.125Z,11.52
2023-03-21T23:36:54.324Z,10.75
2023-03-21T23:41:58.596Z,11.82
2023-03-21T23:47:01.106Z,15.35
2023-03-21T23:52:03.904Z,9.57
2023-03-21T23:57:06.118Z,8.93
